createdAt,value
2022-10-24T00:09:11.973Z,0.20
2022-10-24T00:14:13.625Z,0.30
2022-10-24T00:19:15.259Z,0.20
2022-10-24T00:24:16.991Z,0.20
2022-10-24T00:29:18.652Z,0.20
2022-10-24T00:34:20.520Z,0.20
2022-10-24T00:39:22.289Z,0.20
2022-10-24T00:44:29.123Z,0.20
2022-10-24T00:49:43.957Z,0.20
2022-10-24T00:54:45.642Z,0.20
2022-10-24T00:59:49.446Z,0.30
2022-10-24T01:04:51.139Z,0.20
2022-10-24T01:09:52.624Z,0.20
2022-10-24T01:15:03.201Z,0.30
2022-10-24T01:20:13.165Z,0.20
2022-10-24T01:25:27.918Z,0.20
2022-10-24T01:30:29.760Z,0.20
2022-10-24T01:35:41.077Z,0.20
2022-10-24T01:41:00.269Z,0.30
2022-10-24T01:46:03.635Z,0.30
2022-10-24T01:51:05.411Z,0.20
2022-10-24T01:56:07.633Z,0.30
2022-10-24T02:01:14.661Z,0.20
2022-10-24T02:06:21.243Z,0.30
2022-10-24T02:11:22.898Z,0.20
2022-10-24T02:16:24.524Z,0.20
2022-10-24T02:21:52.373Z,0.20
2022-10-24T02:27:00.095Z,0.20
2022-10-24T02:32:01.769Z,0.30
2022-10-24T02:37:03.424Z,0.20
2022-10-24T02:42:05.099Z,0.30
2022-10-24T02:47:06.755Z,0.20
2022-10-24T02:52:08.460Z,0.20
2022-10-24T02:57:10.089Z,0.20
2022-10-24T03:02:11.788Z,0.30
2022-10-24T03:07:13.493Z,0.20
2022-10-24T03:12:18.313Z,0.30
2022-10-24T03:17:19.977Z,0.30
2022-10-24T03:22:21.691Z,0.20
2022-10-24T03:27:23.379Z,0.20
2022-10-24T03:37:31.550Z,0.20
2022-10-24T03:42:33.183Z,0.20
2022-10-24T03:47:34.826Z,0.20
2022-10-24T03:52:36.453Z,0.30
2022-10-24T03:57:38.090Z,0.20
2022-10-24T04:02:41.641Z,0.20
2022-10-24T04:07:46.108Z,0.20
2022-10-24T04:12:48.040Z,0.30
2022-10-24T04:17:49.691Z,0.20
2022-10-24T04:22:51.350Z,0.30
2022-10-24T04:27:52.969Z,0.30
2022-10-24T04:32:54.595Z,0.30
2022-10-24T04:37:56.222Z,0.20
2022-10-24T04:42:57.898Z,0.20
2022-10-24T04:47:59.554Z,0.27
2022-10-24T04:53:01.776Z,0.20
2022-10-24T04:58:03.822Z,0.20
2022-10-24T05:03:05.527Z,0.30
2022-10-24T05:08:07.186Z,0.30
2022-10-24T05:13:08.915Z,0.20
2022-10-24T05:18:10.591Z,0.20
2022-10-24T05:23:12.274Z,0.20
2022-10-24T05:28:13.954Z,0.20
2022-10-24T05:33:15.680Z,0.20
2022-10-24T05:38:17.334Z,0.30
2022-10-24T05:43:19.096Z,0.20
2022-10-24T05:48:20.780Z,0.30
2022-10-24T05:53:22.403Z,0.20
2022-10-24T05:58:24.880Z,0.20
2022-10-24T06:03:26.557Z,0.20
2022-10-24T06:08:28.203Z,0.20
2022-10-24T06:13:33.817Z,0.30
2022-10-24T06:18:38.300Z,0.20
2022-10-24T06:23:39.967Z,0.30
2022-10-24T06:28:41.656Z,0.20
2022-10-24T06:33:43.336Z,0.20
2022-10-24T06:38:45.028Z,0.20
2022-10-24T06:43:46.810Z,0.20
2022-10-24T06:48:48.828Z,0.30
2022-10-24T06:53:50.482Z,0.20
2022-10-24T06:58:52.170Z,0.20
2022-10-24T07:03:54.231Z,0.20
2022-10-24T07:08:57.154Z,0.20
2022-10-24T07:14:00.918Z,0.20
2022-10-24T07:19:04.060Z,0.20
2022-10-24T07:24:06.214Z,0.23
2022-10-24T07:29:07.871Z,0.20
2022-10-24T07:34:09.620Z,0.20
2022-10-24T07:39:12.033Z,0.20
2022-10-24T07:44:13.685Z,0.30
2022-10-24T07:49:15.326Z,0.20
2022-10-24T07:54:17.056Z,0.23
2022-10-24T07:59:40.604Z,0.20
2022-10-24T08:04:40.543Z,0.27
2022-10-24T08:09:43.711Z,0.20
2022-10-24T08:14:45.342Z,0.30
2022-10-24T08:19:47.045Z,0.20
2022-10-24T08:24:48.755Z,0.20
2022-10-24T08:29:50.408Z,0.20
2022-10-24T08:34:52.026Z,0.20
2022-10-24T08:39:56.573Z,0.20
2022-10-24T08:44:58.237Z,0.20
2022-10-24T08:50:21.690Z,0.20
2022-10-24T08:55:47.697Z,0.30
2022-10-24T09:00:48.805Z,0.20
2022-10-24T09:05:52.144Z,0.30
2022-10-24T09:11:01.147Z,0.20
2022-10-24T09:16:02.843Z,0.20
2022-10-24T09:21:08.572Z,0.30
2022-10-24T09:26:15.969Z,0.20
2022-10-24T09:31:22.028Z,0.90
2022-10-24T09:36:25.011Z,1.00
2022-10-24T09:41:28.697Z,1.30
2022-10-24T09:46:39.580Z,1.10
2022-10-24T09:52:04.669Z,1.20
2022-10-24T09:57:11.524Z,1.30
2022-10-24T10:02:20.530Z,1.37
2022-10-24T10:07:26.158Z,1.40
2022-10-24T10:12:38.937Z,1.97
2022-10-24T10:17:40.851Z,1.90
2022-10-24T10:22:42.468Z,2.23
2022-10-24T10:27:44.578Z,2.30
2022-10-24T10:33:15.151Z,2.60
2022-10-24T10:38:37.627Z,2.07
2022-10-24T10:43:48.337Z,2.50
2022-10-24T10:49:10.117Z,3.03
2022-10-24T10:54:30.008Z,3.40
2022-10-24T10:59:59.211Z,3.27
2022-10-24T11:05:27.232Z,3.60
2022-10-24T11:10:32.652Z,3.53
2022-10-24T11:15:40.334Z,3.53
2022-10-24T11:20:45.615Z,3.30
2022-10-24T11:25:52.515Z,3.20
2022-10-24T11:31:04.440Z,3.70
2022-10-24T11:36:07.929Z,3.40
2022-10-24T11:41:43.663Z,3.20
2022-10-24T11:46:47.801Z,3.37
2022-10-24T11:51:56.715Z,3.13
2022-10-24T11:57:08.452Z,2.97
2022-10-24T12:02:35.923Z,2.63
2022-10-24T12:07:44.925Z,3.30
2022-10-24T12:13:08.531Z,2.50
2022-10-24T12:18:38.153Z,2.43
2022-10-24T12:23:40.622Z,2.50
2022-10-24T12:28:43.503Z,2.30
2022-10-24T12:33:46.369Z,2.63
2022-10-24T12:38:57.051Z,3.07
2022-10-24T12:44:37.257Z,2.53
2022-10-24T12:49:38.931Z,3.10
2022-10-24T12:54:44.706Z,2.50
2022-10-24T12:59:59.339Z,2.40
2022-10-24T13:05:19.657Z,2.30
2022-10-24T13:10:24.956Z,2.13
2022-10-24T13:15:28.548Z,2.20
2022-10-24T13:20:45.957Z,2.60
2022-10-24T13:25:47.760Z,2.60
2022-10-24T13:30:53.148Z,2.40
2022-10-24T13:36:08.465Z,2.50
2022-10-24T13:41:11.130Z,2.50
2022-10-24T13:46:13.332Z,2.80
2022-10-24T13:51:21.596Z,2.10
2022-10-24T13:56:23.243Z,2.33
2022-10-24T14:01:30.169Z,2.27
2022-10-24T14:06:32.814Z,2.43
2022-10-24T14:11:35.156Z,2.13
2022-10-24T14:16:36.789Z,2.60
2022-10-24T14:21:42.461Z,2.40
2022-10-24T14:26:45.611Z,2.20
2022-10-24T14:31:47.340Z,2.10
2022-10-24T14:36:48.989Z,1.80
2022-10-24T14:41:51.507Z,1.93
2022-10-24T14:47:04.371Z,1.90
2022-10-24T14:52:16.829Z,1.50
2022-10-24T14:57:20.196Z,1.67
2022-10-24T15:02:26.339Z,1.93
2022-10-24T15:07:29.999Z,2.20
2022-10-24T15:12:33.859Z,1.90
2022-10-24T15:17:35.554Z,1.90
2022-10-24T15:22:38.315Z,1.97
2022-10-24T15:27:41.166Z,2.20
2022-10-24T15:32:43.094Z,2.30
2022-10-24T15:38:04.601Z,2.10
2022-10-24T15:43:08.571Z,2.73
2022-10-24T15:48:10.229Z,3.07
2022-10-24T15:53:19.991Z,3.43
2022-10-24T15:58:21.645Z,3.73
2022-10-24T16:03:23.461Z,6.90
2022-10-24T16:08:25.361Z,3.07
2022-10-24T16:13:27.035Z,2.07
2022-10-24T16:18:28.678Z,2.60
2022-10-24T16:23:30.452Z,2.40
2022-10-24T16:28:32.111Z,2.40
2022-10-24T16:33:33.836Z,2.40
2022-10-24T16:38:35.569Z,2.97
2022-10-24T16:43:40.413Z,2.70
2022-10-24T16:48:44.363Z,2.23
2022-10-24T16:53:45.993Z,2.23
2022-10-24T16:58:47.679Z,2.10
2022-10-24T17:03:49.347Z,2.47
2022-10-24T17:08:52.381Z,3.10
2022-10-24T17:13:54.008Z,3.40
2022-10-24T17:19:12.438Z,5.03
2022-10-24T17:24:24.528Z,5.10
2022-10-24T17:29:31.036Z,4.10
2022-10-24T17:34:33.271Z,5.20
2022-10-24T17:39:41.691Z,4.50
2022-10-24T17:44:47.606Z,3.70
2022-10-24T17:49:49.270Z,3.27
2022-10-24T17:54:50.963Z,3.20
2022-10-24T17:59:54.068Z,2.70
2022-10-24T18:04:55.888Z,2.67
2022-10-24T18:10:00.348Z,2.70
2022-10-24T18:15:02.298Z,1.90
2022-10-24T18:20:05.524Z,1.63
2022-10-24T18:25:08.183Z,2.00
2022-10-24T18:30:10.561Z,2.10
2022-10-24T18:35:12.383Z,2.13
2022-10-24T18:40:14.512Z,2.63
2022-10-24T18:45:24.380Z,2.13
2022-10-24T18:50:26.426Z,2.00
2022-10-24T18:55:28.995Z,2.17
2022-10-24T19:00:31.988Z,2.27
2022-10-24T19:05:43.834Z,2.50
2022-10-24T19:10:45.896Z,2.00
2022-10-24T19:15:51.818Z,2.20
2022-10-24T19:20:53.581Z,1.93
2022-10-24T19:25:55.292Z,2.20
2022-10-24T19:30:57.265Z,2.10
2022-10-24T19:36:02.185Z,1.70
2022-10-24T19:41:06.315Z,2.90
2022-10-24T19:46:19.252Z,3.50
2022-10-24T19:51:21.606Z,2.97
2022-10-24T19:56:25.386Z,3.20
2022-10-24T20:01:30.911Z,3.07
2022-10-24T20:06:32.956Z,2.33
2022-10-24T20:11:34.694Z,3.37
2022-10-24T20:16:36.439Z,3.10
2022-10-24T20:21:38.172Z,2.90
2022-10-24T20:26:39.879Z,2.57
2022-10-24T20:31:44.439Z,3.00
2022-10-24T20:36:47.914Z,2.60
2022-10-24T20:41:51.898Z,2.20
2022-10-24T20:46:58.897Z,2.33
2022-10-24T20:52:00.624Z,2.57
2022-10-24T20:57:02.283Z,2.20
2022-10-24T21:02:04.064Z,2.47
2022-10-24T21:07:05.795Z,2.33
2022-10-24T21:12:07.461Z,2.40
2022-10-24T21:17:09.117Z,2.33
2022-10-24T21:22:10.829Z,2.50
2022-10-24T21:27:12.554Z,3.37
2022-10-24T21:32:14.206Z,3.10
2022-10-24T21:37:15.864Z,2.80
2022-10-24T21:42:17.662Z,2.90
2022-10-24T21:47:19.449Z,2.30
2022-10-24T21:52:21.182Z,2.60
2022-10-24T21:57:22.842Z,2.93
2022-10-24T22:02:24.619Z,2.50
2022-10-24T22:12:28.924Z,3.07
2022-10-24T22:17:30.572Z,2.87
2022-10-24T22:22:32.233Z,2.90
2022-10-24T22:27:33.907Z,2.47
2022-10-24T22:32:35.708Z,2.70
2022-10-24T22:37:37.542Z,2.20
2022-10-24T22:42:39.239Z,2.73
2022-10-24T22:48:08.694Z,2.10
2022-10-24T22:53:11.772Z,2.07
2022-10-24T22:58:13.596Z,2.17
2022-10-24T23:03:33.422Z,2.67
2022-10-24T23:08:39.292Z,2.60
2022-10-24T23:13:41.253Z,3.30
2022-10-24T23:18:43.092Z,2.40
2022-10-24T23:23:44.941Z,2.20
2022-10-24T23:28:59.056Z,2.17
2022-10-24T23:34:00.976Z,1.93
2022-10-24T23:39:02.640Z,1.73
2022-10-24T23:44:04.659Z,2.20
2022-10-24T23:49:20.793Z,2.17
2022-10-24T23:54:25.189Z,2.50
2022-10-24T23:59:26.887Z,2.13
